Vega Sigma — D5EV6 — position and weather

sailwx.info

Track history (hours):
 
Tides and Currents Weather Stations Pressure Air Temp Water Temp Dewpoint Dewpoint Depression Visibility Wind Speed Wind Dir Waves Ship Positions

Vega Sigma

Last reported at 2018-Feb-25 16:43 UTC. Time now 2018-Feb-25 18:10 UTC.
Position N 38°04' E 000°08'.

Length 148 m; draft 8.7 m.

Type: Cargo ship. MMSI: 636092527.

Date/timePositionNaut miles runAvg speedWind from/ knotsBaromVisibWave heightAir tempDewpointWater temp
2018-Feb-25 16:43N 38°04' E 000°08'313.6
2018-Feb-25 16:30N 38°07' E 000°09'8112.4
2018-Feb-25 09:57N 39°25' W 000°17'2 0.5
2018-Feb-25 06:43N 39°26' W 000°19'0 0.0
2018-Feb-25 06:28N 39°26' W 000°19'0 0.0
2018-Feb-25 05:58N 39°26' W 000°19'0 0.0
2018-Feb-25 02:46N 39°26' W 000°19'0 0.0
2018-Feb-24 22:21N 39°26' W 000°19'0 1.1
2018-Feb-24 21:59N 39°26' W 000°19'0 0.0
2018-Feb-24 21:29N 39°26' W 000°19'0 0.0
2018-Feb-24 20:59N 39°26' W 000°19'0 0.0
2018-Feb-24 20:23N 39°26' W 000°19'0 0.0
2018-Feb-24 19:59N 39°26' W 000°19'0 0.0
2018-Feb-24 19:29N 39°26' W 000°19'0 0.0
2018-Feb-24 18:59N 39°26' W 000°19'0 0.0
2018-Feb-24 18:29N 39°26' W 000°19'0 0.0
2018-Feb-24 17:59N 39°26' W 000°19'0 0.0
2018-Feb-24 17:26N 39°26' W 000°19'0 0.0
2018-Feb-24 16:59N 39°26' W 000°19'0 0.0
2018-Feb-24 16:29N 39°26' W 000°19'0 0.0
2018-Feb-24 15:59N 39°26' W 000°19'0 0.0
2018-Feb-24 15:29N 39°26' W 000°19'0 0.0
2018-Feb-24 14:17N 39°26' W 000°19'0 0.0
2018-Feb-24 13:50N 39°26' W 000°19'0 0.0
2018-Feb-24 13:29N 39°26' W 000°19'0 0.0
2018-Feb-24 11:47N 39°26' W 000°19'0 0.0
2018-Feb-24 11:29N 39°26' W 000°19'0 0.0
2018-Feb-24 10:59N 39°26' W 000°19'0 0.0
2018-Feb-24 10:29N 39°26' W 000°19'0 0.0
2018-Feb-24 09:59N 39°26' W 000°19'0 0.0
2018-Feb-24 09:30N 39°26' W 000°19'2 4.7
2018-Feb-24 09:00N 39°25' W 000°17'2 0.1
2018-Feb-23 11:10N 39°24' W 000°15'0 0.1
2018-Feb-23 10:58N 39°24' W 000°15'0 0.0
2018-Feb-23 05:01N 39°24' W 000°15'0 0.0
2018-Feb-23 04:52N 39°24' W 000°15'0 0.0
2018-Feb-22 21:04N 39°24' W 000°15'0 0.4
2018-Feb-22 20:58N 39°24' W 000°15'0 0.0
2018-Feb-22 16:05N 39°24' W 000°15'0 0.0
2018-Feb-22 15:51N 39°24' W 000°15'0 0.0
2018-Feb-22 15:27N 39°24' W 000°15'0 0.0
2018-Feb-22 14:57N 39°24' W 000°15'0 0.0
2018-Feb-22 14:16N 39°24' W 000°15'0 0.1
2018-Feb-22 12:25N 39°24' W 000°15'3 7.6
2018-Feb-22 11:58N 39°27' W 000°13'612.4
2018-Feb-22 11:31N 39°31' W 000°09'12312.2
2018-Feb-22 01:26N 40°56' E 001°48'512.5
2018-Feb-22 01:00N 40°60' E 001°53'612.7
2018-Feb-22 00:30N 41°05' E 001°58'613.4
2018-Feb-22 00:01N 41°10' E 002°03'713.5
2018-Feb-21 23:30N 41°15' E 002°09'4 7.2
2018-Feb-21 23:00N 41°19' E 002°09'0 0.8
2018-Feb-21 22:30N 41°18' E 002°09'0 0.0
2018-Feb-21 22:00N 41°18' E 002°09'0 0.0
2018-Feb-21 21:27N 41°18' E 002°09'0 0.0
2018-Feb-21 21:00N 41°18' E 002°09'0 0.0
2018-Feb-21 20:30N 41°18' E 002°09'0 0.0
2018-Feb-21 20:00N 41°18' E 002°09'0 0.0
2018-Feb-21 19:27N 41°18' E 002°09'0 0.0
2018-Feb-21 18:57N 41°18' E 002°09'0 0.0
2018-Feb-21 18:27N 41°18' E 002°09'0 0.0
2018-Feb-21 17:57N 41°18' E 002°09'0 0.0
2018-Feb-21 17:27N 41°18' E 002°09'0 0.0
2018-Feb-21 16:57N 41°18' E 002°09'0 0.0
2018-Feb-21 16:27N 41°18' E 002°09'0 0.0
2018-Feb-21 15:57N 41°18' E 002°09'0 0.0
2018-Feb-21 15:27N 41°18' E 002°09'0 0.0
2018-Feb-21 15:00N 41°18' E 002°09'0 0.0
2018-Feb-21 14:30N 41°18' E 002°09'0 0.0
2018-Feb-21 14:00N 41°18' E 002°09'0 0.0
2018-Feb-21 13:30N 41°18' E 002°09'0 0.0
2018-Feb-21 13:00N 41°18' E 002°09'0 0.0
2018-Feb-21 12:30N 41°18' E 002°09'1 2.7
2018-Feb-21 12:00N 41°18' E 002°11'612.1
2018-Feb-21 11:30N 41°12' E 002°09'814.8
2018-Feb-21 11:00N 41°05' E 002°05'714.2
2018-Feb-21 10:30N 40°59' E 002°02'21615.2
2018-Feb-20 20:17N 37°37' E 000°21'414.2
2018-Feb-20 20:00N 37°33' E 000°19'714.5
2018-Feb-20 19:31N 37°26' E 000°16'714.7
2018-Feb-20 19:00N 37°19' E 000°12'715.0
2018-Feb-20 18:31N 37°13' E 000°08'815.2
2018-Feb-20 18:01N 37°06' E 000°05'815.2
2018-Feb-20 17:29N 36°58' E 000°01'715.4
2018-Feb-20 17:01N 36°51' W 000°02'  
2018-Feb-15 21:03N 35°43' W 000°38'0 0.0
2018-Feb-15 20:59N 35°43' W 000°38'  
Track history (hours):
 
Tides and Currents Weather Stations Pressure Air Temp Water Temp Dewpoint Dewpoint Depression Visibility Wind Speed Wind Dir Waves Ship Positions

Vega Sigma

Last reported at 2018-Feb-25 16:43 UTC. Time now 2018-Feb-25 18:10 UTC.
Position N 38°04' E 000°08'.

Length 148 m; draft 8.7 m.

Type: Cargo ship. MMSI: 636092527.

Date/timePositionNaut miles runAvg speedWind from/ knotsBaromVisibWave heightAir tempDewpointWater temp
2018-Feb-25 16:43N 38°04' E 000°08'313.6
2018-Feb-25 16:30N 38°07' E 000°09'8112.4
2018-Feb-25 09:57N 39°25' W 000°17'2 0.5
2018-Feb-25 06:43N 39°26' W 000°19'0 0.0
2018-Feb-25 06:28N 39°26' W 000°19'0 0.0
2018-Feb-25 05:58N 39°26' W 000°19'0 0.0
2018-Feb-25 02:46N 39°26' W 000°19'0 0.0
2018-Feb-24 22:21N 39°26' W 000°19'0 1.1
2018-Feb-24 21:59N 39°26' W 000°19'0 0.0
2018-Feb-24 21:29N 39°26' W 000°19'0 0.0
2018-Feb-24 20:59N 39°26' W 000°19'0 0.0
2018-Feb-24 20:23N 39°26' W 000°19'0 0.0
2018-Feb-24 19:59N 39°26' W 000°19'0 0.0
2018-Feb-24 19:29N 39°26' W 000°19'0 0.0
2018-Feb-24 18:59N 39°26' W 000°19'0 0.0
2018-Feb-24 18:29N 39°26' W 000°19'0 0.0
2018-Feb-24 17:59N 39°26' W 000°19'0 0.0
2018-Feb-24 17:26N 39°26' W 000°19'0 0.0
2018-Feb-24 16:59N 39°26' W 000°19'0 0.0
2018-Feb-24 16:29N 39°26' W 000°19'0 0.0
2018-Feb-24 15:59N 39°26' W 000°19'0 0.0
2018-Feb-24 15:29N 39°26' W 000°19'0 0.0
2018-Feb-24 14:17N 39°26' W 000°19'0 0.0
2018-Feb-24 13:50N 39°26' W 000°19'0 0.0
2018-Feb-24 13:29N 39°26' W 000°19'0 0.0
2018-Feb-24 11:47N 39°26' W 000°19'0 0.0
2018-Feb-24 11:29N 39°26' W 000°19'0 0.0
2018-Feb-24 10:59N 39°26' W 000°19'0 0.0
2018-Feb-24 10:29N 39°26' W 000°19'0 0.0
2018-Feb-24 09:59N 39°26' W 000°19'0 0.0
2018-Feb-24 09:30N 39°26' W 000°19'2 4.7
2018-Feb-24 09:00N 39°25' W 000°17'2 0.1
2018-Feb-23 11:10N 39°24' W 000°15'0 0.1
2018-Feb-23 10:58N 39°24' W 000°15'0 0.0
2018-Feb-23 05:01N 39°24' W 000°15'0 0.0
2018-Feb-23 04:52N 39°24' W 000°15'0 0.0
2018-Feb-22 21:04N 39°24' W 000°15'0 0.4
2018-Feb-22 20:58N 39°24' W 000°15'0 0.0
2018-Feb-22 16:05N 39°24' W 000°15'0 0.0
2018-Feb-22 15:51N 39°24' W 000°15'0 0.0
2018-Feb-22 15:27N 39°24' W 000°15'0 0.0
2018-Feb-22 14:57N 39°24' W 000°15'0 0.0
2018-Feb-22 14:16N 39°24' W 000°15'0 0.1
2018-Feb-22 12:25N 39°24' W 000°15'3 7.6
2018-Feb-22 11:58N 39°27' W 000°13'612.4
2018-Feb-22 11:31N 39°31' W 000°09'12312.2
2018-Feb-22 01:26N 40°56' E 001°48'512.5
2018-Feb-22 01:00N 40°60' E 001°53'612.7
2018-Feb-22 00:30N 41°05' E 001°58'613.4
2018-Feb-22 00:01N 41°10' E 002°03'713.5
2018-Feb-21 23:30N 41°15' E 002°09'4 7.2
2018-Feb-21 23:00N 41°19' E 002°09'0 0.8
2018-Feb-21 22:30N 41°18' E 002°09'0 0.0
2018-Feb-21 22:00N 41°18' E 002°09'0 0.0
2018-Feb-21 21:27N 41°18' E 002°09'0 0.0
2018-Feb-21 21:00N 41°18' E 002°09'0 0.0
2018-Feb-21 20:30N 41°18' E 002°09'0 0.0
2018-Feb-21 20:00N 41°18' E 002°09'0 0.0
2018-Feb-21 19:27N 41°18' E 002°09'0 0.0
2018-Feb-21 18:57N 41°18' E 002°09'0 0.0
2018-Feb-21 18:27N 41°18' E 002°09'0 0.0
2018-Feb-21 17:57N 41°18' E 002°09'0 0.0
2018-Feb-21 17:27N 41°18' E 002°09'0 0.0
2018-Feb-21 16:57N 41°18' E 002°09'0 0.0
2018-Feb-21 16:27N 41°18' E 002°09'0 0.0
2018-Feb-21 15:57N 41°18' E 002°09'0 0.0
2018-Feb-21 15:27N 41°18' E 002°09'0 0.0
2018-Feb-21 15:00N 41°18' E 002°09'0 0.0
2018-Feb-21 14:30N 41°18' E 002°09'0 0.0
2018-Feb-21 14:00N 41°18' E 002°09'0 0.0
2018-Feb-21 13:30N 41°18' E 002°09'0 0.0
2018-Feb-21 13:00N 41°18' E 002°09'0 0.0
2018-Feb-21 12:30N 41°18' E 002°09'1 2.7
2018-Feb-21 12:00N 41°18' E 002°11'612.1
2018-Feb-21 11:30N 41°12' E 002°09'814.8
2018-Feb-21 11:00N 41°05' E 002°05'714.2
2018-Feb-21 10:30N 40°59' E 002°02'21615.2
2018-Feb-20 20:17N 37°37' E 000°21'414.2
2018-Feb-20 20:00N 37°33' E 000°19'714.5
2018-Feb-20 19:31N 37°26' E 000°16'714.7
2018-Feb-20 19:00N 37°19' E 000°12'715.0
2018-Feb-20 18:31N 37°13' E 000°08'815.2
2018-Feb-20 18:01N 37°06' E 000°05'815.2
2018-Feb-20 17:29N 36°58' E 000°01'715.4
2018-Feb-20 17:01N 36°51' W 000°02'  
2018-Feb-15 21:03N 35°43' W 000°38'0 0.0
2018-Feb-15 20:59N 35°43' W 000°38'  

Dump ship's entire track history